createdAt,value
2024-01-11T00:00:31.038Z,8.85
2024-01-11T00:05:18.385Z,9.95
2024-01-11T00:10:06.430Z,9.77
2024-01-11T00:14:53.606Z,9.63
2024-01-11T00:19:43.442Z,9.13
2024-01-11T00:24:30.501Z,8.38
2024-01-11T00:29:17.772Z,10.07
2024-01-11T00:34:05.131Z,8.90
2024-01-11T00:38:55.068Z,8.77
2024-01-11T00:43:42.390Z,8.98
2024-01-11T00:48:29.764Z,8.75
2024-01-11T00:53:17.060Z,8.70
2024-01-11T00:58:06.929Z,10.35
2024-01-11T01:02:55.020Z,9.27
2024-01-11T01:07:42.173Z,10.02
2024-01-11T01:12:29.293Z,10.55
2024-01-11T01:17:19.312Z,9.88
2024-01-11T01:22:06.527Z,10.75
2024-01-11T01:26:53.837Z,10.45
2024-01-11T01:32:11.125Z,8.82
2024-01-11T01:37:00.965Z,10.13
2024-01-11T01:41:48.134Z,9.23
2024-01-11T01:46:35.867Z,9.73
2024-01-11T01:51:25.025Z,9.20
2024-01-11T01:56:14.797Z,8.85
2024-01-11T02:01:02.493Z,8.13
2024-01-11T02:05:50.151Z,10.70
2024-01-11T02:10:38.047Z,8.13
2024-01-11T02:15:27.892Z,9.80
2024-01-11T02:20:15.478Z,9.35
2024-01-11T02:25:05.969Z,10.63
2024-01-11T02:29:53.191Z,9.85
2024-01-11T02:34:41.077Z,10.25
2024-01-11T02:39:28.667Z,10.75
2024-01-11T02:44:18.711Z,11.60
2024-01-11T02:49:06.175Z,10.20
2024-01-11T02:53:53.519Z,9.90
2024-01-11T02:58:40.921Z,10.15
2024-01-11T03:03:33.578Z,9.43
2024-01-11T03:08:20.833Z,10.27
2024-01-11T03:13:08.668Z,9.55
2024-01-11T03:17:56.192Z,9.40
2024-01-11T03:22:51.838Z,9.15
2024-01-11T03:27:39.090Z,8.70
2024-01-11T03:32:26.720Z,10.45
2024-01-11T03:37:14.025Z,9.75
2024-01-11T03:42:04.399Z,9.68
2024-01-11T03:46:51.611Z,10.48
2024-01-11T03:51:39.208Z,9.77
2024-01-11T03:56:26.531Z,10.23
2024-01-11T04:01:16.679Z,10.32
2024-01-11T04:06:04.331Z,10.23
2024-01-11T04:10:51.858Z,11.13
2024-01-11T04:15:39.135Z,10.45
2024-01-11T04:20:28.950Z,9.85
2024-01-11T04:25:16.220Z,10.77
2024-01-11T04:30:03.937Z,10.93
2024-01-11T04:34:51.160Z,11.45
2024-01-11T04:39:40.844Z,11.88
2024-01-11T04:44:28.327Z,11.15
2024-01-11T04:49:17.971Z,10.60
2024-01-11T04:54:05.414Z,12.93
2024-01-11T04:58:55.435Z,12.82
2024-01-11T05:03:42.916Z,12.13
2024-01-11T05:08:31.335Z,14.70
2024-01-11T05:13:19.421Z,13.02
2024-01-11T05:18:09.654Z,13.43
2024-01-11T05:22:57.829Z,12.63
2024-01-11T05:27:45.150Z,14.50
2024-01-11T05:32:32.596Z,13.68
2024-01-11T05:37:22.570Z,11.73
2024-01-11T05:42:09.889Z,14.10
2024-01-11T05:46:57.362Z,15.07
2024-01-11T05:51:44.908Z,15.07
2024-01-11T05:56:37.172Z,15.07
2024-01-11T06:01:24.434Z,16.35
2024-01-11T06:06:11.949Z,16.02
2024-01-11T06:10:59.366Z,14.52
2024-01-11T06:15:49.368Z,16.25
2024-01-11T06:20:36.873Z,17.25
2024-01-11T06:25:24.199Z,16.15
2024-01-11T06:30:12.859Z,16.58
2024-01-11T06:35:03.173Z,16.88
2024-01-11T06:39:51.175Z,16.77
2024-01-11T06:44:44.928Z,16.70
2024-01-11T06:49:35.131Z,19.15
2024-01-11T06:54:25.251Z,18.58
2024-01-11T06:59:13.080Z,18.83
2024-01-11T07:04:00.676Z,18.17
2024-01-11T07:08:48.138Z,18.58
2024-01-11T07:13:38.195Z,16.55
2024-01-11T07:18:25.746Z,19.20
2024-01-11T07:23:15.974Z,18.70
2024-01-11T07:28:03.514Z,19.00
2024-01-11T07:32:53.768Z,21.23
2024-01-11T07:37:41.416Z,19.38
2024-01-11T07:42:28.841Z,22.10
2024-01-11T07:47:16.616Z,23.33
2024-01-11T07:52:07.194Z,20.92
2024-01-11T07:56:56.579Z,21.95
2024-01-11T08:01:43.976Z,22.13
2024-01-11T08:06:32.867Z,21.70
2024-01-11T08:11:22.886Z,22.17
2024-01-11T08:16:16.776Z,23.60
2024-01-11T08:21:05.673Z,21.40
2024-01-11T08:25:53.146Z,21.27
2024-01-11T08:30:43.253Z,22.35
2024-01-11T08:35:30.745Z,21.92
2024-01-11T08:40:18.481Z,20.55
2024-01-11T08:45:07.413Z,23.10
2024-01-11T08:49:57.500Z,23.60
2024-01-11T08:54:44.945Z,23.60
2024-01-11T08:59:32.345Z,24.70
2024-01-11T09:04:20.213Z,22.08
2024-01-11T09:09:12.411Z,22.90
2024-01-11T09:13:59.873Z,23.73
2024-01-11T09:18:48.777Z,24.80
2024-01-11T09:23:36.565Z,21.85
2024-01-11T09:28:26.446Z,21.63
2024-01-11T09:33:13.782Z,23.98
2024-01-11T09:38:01.218Z,21.88
2024-01-11T09:42:48.534Z,24.55
2024-01-11T09:47:51.350Z,22.65
2024-01-11T09:52:40.935Z,21.60
2024-01-11T09:57:31.028Z,24.63
2024-01-11T10:02:18.913Z,26.98
2024-01-11T10:07:10.544Z,23.42
2024-01-11T10:11:57.987Z,22.92
2024-01-11T10:16:45.300Z,19.25
2024-01-11T10:21:32.631Z,20.98
2024-01-11T10:26:22.519Z,22.13
2024-01-11T10:31:09.999Z,20.52
2024-01-11T10:35:57.556Z,19.80
2024-01-11T10:40:45.516Z,19.48
2024-01-11T10:45:35.579Z,17.95
2024-01-11T10:50:26.977Z,19.38
2024-01-11T10:55:16.062Z,17.10
2024-01-11T11:00:04.767Z,19.45
2024-01-11T11:04:56.880Z,13.90
2024-01-11T11:09:45.506Z,12.65
2024-01-11T11:14:36.177Z,14.60
2024-01-11T11:19:24.093Z,15.48
2024-01-11T11:24:20.045Z,15.07
2024-01-11T11:29:09.558Z,16.45
2024-01-11T11:34:01.815Z,15.70
2024-01-11T11:38:53.394Z,17.50
2024-01-11T11:43:49.391Z,16.58
2024-01-11T11:48:51.817Z,18.02
2024-01-11T11:53:40.870Z,16.98
2024-01-11T11:58:30.513Z,17.98
2024-01-11T12:03:21.234Z,16.75
2024-01-11T12:08:09.040Z,18.25
2024-01-11T12:12:56.759Z,16.98
2024-01-11T12:17:47.669Z,17.05
2024-01-11T12:22:40.346Z,17.30
2024-01-11T12:27:31.272Z,17.52
2024-01-11T12:32:18.813Z,16.48
2024-01-11T12:37:07.267Z,17.48
2024-01-11T12:42:00.745Z,15.75
2024-01-11T12:46:49.543Z,18.00
2024-01-11T12:51:37.851Z,16.75
2024-01-11T12:56:37.753Z,16.15
2024-01-11T13:01:31.565Z,14.18
2024-01-11T13:06:19.692Z,16.38
2024-01-11T13:11:07.408Z,16.38
2024-01-11T13:15:55.119Z,15.98
2024-01-11T13:20:45.132Z,15.98
2024-01-11T13:25:32.251Z,17.08
2024-01-11T13:30:21.359Z,15.82
2024-01-11T13:35:08.973Z,15.20
2024-01-11T13:39:58.680Z,14.93
2024-01-11T13:44:45.894Z,15.43
2024-01-11T13:49:33.153Z,14.80
2024-01-11T13:54:20.325Z,14.50
2024-01-11T13:59:12.828Z,14.63
2024-01-11T14:03:59.974Z,15.00
2024-01-11T14:08:47.285Z,15.63
2024-01-11T14:13:34.544Z,15.43
2024-01-11T14:18:25.062Z,16.50
2024-01-11T14:23:12.711Z,14.85
2024-01-11T14:28:00.066Z,16.20
2024-01-11T14:32:47.576Z,16.40
2024-01-11T14:37:39.172Z,16.58
2024-01-11T14:42:26.615Z,16.58
2024-01-11T14:47:14.028Z,16.60
2024-01-11T14:52:01.141Z,16.52
2024-01-11T14:56:51.080Z,15.60
2024-01-11T15:01:38.323Z,15.95
2024-01-11T15:06:25.771Z,17.85
2024-01-11T15:11:13.068Z,17.63
2024-01-11T15:16:03.545Z,17.80
2024-01-11T15:20:50.809Z,18.92
2024-01-11T15:25:37.996Z,18.65
2024-01-11T15:30:25.416Z,16.25
2024-01-11T15:35:15.534Z,17.70
2024-01-11T15:40:03.636Z,16.17
2024-01-11T15:44:51.799Z,16.85
2024-01-11T15:49:39.207Z,15.63
2024-01-11T15:54:28.921Z,16.20
2024-01-11T15:59:16.259Z,19.30
2024-01-11T16:04:05.529Z,17.33
2024-01-11T16:08:52.876Z,17.17
2024-01-11T16:13:42.811Z,17.60
2024-01-11T16:18:30.217Z,18.02
2024-01-11T16:23:19.668Z,19.38
2024-01-11T16:28:07.104Z,20.65
2024-01-11T16:32:56.842Z,20.30
2024-01-11T16:37:44.101Z,21.13
2024-01-11T16:42:31.476Z,20.75
2024-01-11T16:47:18.705Z,24.35
2024-01-11T16:52:08.799Z,24.85
2024-01-11T16:56:56.294Z,21.75
2024-01-11T17:01:43.713Z,22.92
2024-01-11T17:06:30.835Z,42.15
2024-01-11T17:11:20.623Z,28.52
2024-01-11T17:16:08.292Z,27.23
2024-01-11T17:20:55.582Z,27.83
2024-01-11T17:25:42.849Z,28.42
2024-01-11T17:30:32.865Z,24.88
2024-01-11T17:35:20.439Z,27.63
2024-01-11T17:40:11.632Z,31.90
2024-01-11T17:44:58.891Z,25.95
2024-01-11T17:49:49.159Z,27.65
2024-01-11T17:54:36.956Z,26.42
2024-01-11T17:59:24.203Z,27.23
2024-01-11T18:04:11.595Z,28.65
2024-01-11T18:09:02.037Z,25.77
2024-01-11T18:13:49.320Z,29.05
2024-01-11T18:18:37.053Z,28.52
2024-01-11T18:23:24.378Z,27.17
2024-01-11T18:28:14.261Z,28.85
2024-01-11T18:33:01.558Z,27.25
2024-01-11T18:37:49.959Z,34.70
2024-01-11T18:42:37.162Z,27.45
2024-01-11T18:47:26.994Z,28.25
2024-01-11T18:52:17.299Z,30.00
2024-01-11T18:57:06.593Z,28.95
2024-01-11T19:01:55.015Z,30.05
2024-01-11T19:06:44.928Z,34.45
2024-01-11T19:11:32.472Z,29.48
2024-01-11T19:16:19.833Z,31.98
2024-01-11T19:21:07.226Z,36.85
2024-01-11T19:25:58.378Z,31.00
2024-01-11T19:30:46.906Z,35.35
2024-01-11T19:35:34.181Z,33.05
2024-01-11T19:40:21.536Z,34.47
2024-01-11T19:45:15.371Z,34.47
2024-01-11T19:50:02.570Z,31.48
2024-01-11T19:54:49.782Z,31.42
2024-01-11T19:59:37.056Z,32.70
2024-01-11T20:04:26.834Z,32.55
2024-01-11T20:09:14.032Z,34.53
2024-01-11T20:14:03.549Z,34.10
2024-01-11T20:18:50.916Z,31.98
2024-01-11T20:23:41.938Z,33.95
2024-01-11T20:28:29.192Z,34.95
2024-01-11T20:33:16.667Z,37.83
2024-01-11T20:38:04.716Z,38.75
2024-01-11T20:42:56.838Z,35.20
2024-01-11T20:47:44.069Z,35.17
2024-01-11T20:52:32.295Z,32.30
2024-01-11T20:57:19.472Z,34.75
2024-01-11T21:02:09.248Z,32.42
2024-01-11T21:06:56.649Z,33.22
2024-01-11T21:11:44.003Z,29.75
2024-01-11T21:16:31.505Z,34.00
2024-01-11T21:21:21.307Z,33.25
2024-01-11T21:26:08.550Z,29.13
2024-01-11T21:30:55.816Z,28.30
2024-01-11T21:35:43.229Z,27.02
2024-01-11T21:40:33.203Z,25.88
2024-01-11T21:45:20.312Z,27.05
2024-01-11T21:50:08.505Z,23.05
2024-01-11T21:54:55.716Z,23.85
2024-01-11T21:59:45.579Z,26.50
2024-01-11T22:04:32.783Z,24.35
2024-01-11T22:09:19.939Z,24.02
2024-01-11T22:14:07.179Z,16.65
2024-01-11T22:18:57.060Z,16.05
2024-01-11T22:23:44.694Z,14.00
2024-01-11T22:28:31.919Z,11.88
2024-01-11T22:33:19.258Z,10.75
2024-01-11T22:38:09.079Z,10.05
2024-01-11T22:42:56.353Z,8.88
2024-01-11T22:47:43.686Z,9.32
2024-01-11T22:52:30.877Z,7.70
2024-01-11T22:57:20.763Z,7.70
2024-01-11T23:02:08.144Z,8.27
2024-01-11T23:06:55.278Z,8.65
2024-01-11T23:11:43.612Z,6.88
2024-01-11T23:16:33.554Z,7.63
2024-01-11T23:21:20.764Z,7.53
2024-01-11T23:26:07.897Z,6.88
2024-01-11T23:30:57.728Z,7.45
2024-01-11T23:35:47.816Z,6.78
2024-01-11T23:40:35.123Z,5.53
2024-01-11T23:45:22.268Z,8.25
2024-01-11T23:50:10.346Z,6.60
2024-01-11T23:55:00.621Z,5.03
2024-01-11T23:59:48.035Z,7.55
